Arvada, CO

4:13 PM MST on February 28, 2015 (GMT -0700)
Glen Ellen | Change Station
CLOSE
Current Station
Personal Weather Station
Location: Arvada, CO
Elevation: 5377 ft
Nearby Weather Stations

Elev 5377 ft 39.80 °N, 105.09 °W | Updated 2 minutes ago

Mostly Cloudy
Mostly Cloudy
23.4 °F
Feels Like 23 °F
N
0.0
Wind Variable Wind from North
Gusts 0.0 mph

Today
High -- | Low -- °F
--% Chance of Precip.
Yesterday
High -- | Low -- °F
Precip. -- in
6:35 AM 5:51 PM
Waxing Gibbous, 80% visible
Pressure 29.93 in
Visibility 8.0 miles
Clouds Few 3000 ft
Scattered Clouds 5000 ft
Mostly Cloudy 12000 ft
Windchill 23 °F
Dew Point 18 °F
Humidity 81%
Rainfall 0.22 in
Snow Depth Not available.
UV 1 out of 12
Pollen .10 out of 12
Air Quality Not available.
Flu Activity Not available.
METAR KBJC 282246Z 01004KT 8SM HZ FEW030 SCT050 BKN120 M06/M10 A2993

More Conditions Fewer Conditions

Pressure 29.93 in
Visibility 8.0 miles
Clouds Few 3000 ft
Scattered Clouds 5000 ft
Mostly Cloudy 12000 ft
Windchill 23 °F
Dew Point 18 °F
Humidity 81%
Rainfall 0.22 in
Snow Depth Not available.
UV 1 out of 12
Pollen .10 out of 12
Air Quality Not available.
Flu Activity Not available.
METAR KBJC 282246Z 01004KT 8SM HZ FEW030 SCT050 BKN120 M06/M10 A2993

More Conditions Fewer Conditions

10-Day Weather Forecast

Almanac

Astronomy

Feb. 28, 2015 Rise Set
Actual Time
Civil Twilight
Nautical Twilight
Astronomical Twilight
Moon
Length of Visible Light
Length of Day
Tomorrow will be .
, % of the Moon is Illuminated

Today's Extremes

State Highs State Lows

Community

WunderPhotos

Upload Photos

1,801,166 photos uploaded!

WunderBlogs® & News

Nearby

Air Quality

  Air Quality AQ Index Pollutant
Not available.

Snow Depth

Station Depth Elevation

Earthquake Activity

City Distance Mag. Time & Date
Minimum magnitude displayed is 2.5.

Coastal Water Temperatures

Place Temperature

Nearby Weather Stations